Time;durP1;ratioP1;P1;durP2;ratioP2;P2;SDS_P1;SDS_P2;PMS_P1;PMS_P2;Temp;Humidity;BMP_temperature;BMP_pressure;BME280_temperature;BME280_humidity;BME280_pressure;Samples;Min_cycle;Max_cycle;Signal;HPM_P1;HPM_P2
2021/05/21 00:00:33;;;;;;;16.35;9.10;;;;;;;6.62;69.03;97270.23;1747576;81;26437;-91
2021/05/21 00:03:02;;;;;;;16.48;8.10;;;;;;;6.60;69.15;97268.75;1714233;82;26321;-94
2021/05/21 00:05:29;;;;;;;15.03;8.03;;;;;;;6.50;68.95;97264.53;1702996;82;27227;-92
2021/05/21 00:07:55;;;;;;;12.73;7.92;;;;;;;6.46;68.98;97264.58;1716505;82;25662;-90
2021/05/21 00:10:22;;;;;;;16.20;8.48;;;;;;;6.43;69.03;97260.93;1699511;82;25627;-90
2021/05/21 00:12:49;;;;;;;13.58;8.55;;;;;;;6.41;69.08;97256.77;1700228;82;25742;-91
2021/05/21 00:15:16;;;;;;;10.50;7.28;;;;;;;6.38;69.09;97261.19;1708605;82;25778;-90
2021/05/21 00:17:43;;;;;;;12.23;7.87;;;;;;;6.35;69.16;97264.23;1728404;82;27487;-90
2021/05/21 00:20:11;;;;;;;13.18;8.78;;;;;;;6.32;69.12;97267.28;1728397;82;26498;-90
2021/05/21 00:22:37;;;;;;;17.20;8.18;;;;;;;6.26;69.22;97267.55;1729046;82;25640;-88
2021/05/21 00:25:05;;;;;;;14.13;7.83;;;;;;;6.22;69.41;97269.44;1728863;82;25842;-90
2021/05/21 00:27:32;;;;;;;18.45;8.53;;;;;;;6.17;69.40;97267.81;1729601;82;25641;-90
2021/05/21 00:29:58;;;;;;;14.40;8.05;;;;;;;6.05;69.46;97258.91;1728783;82;28289;-90
2021/05/21 00:32:25;;;;;;;12.50;8.08;;;;;;;6.03;69.63;97261.48;1728414;82;25693;-90
2021/05/21 00:34:52;;;;;;;15.08;7.72;;;;;;;6.02;69.67;97257.97;1722289;82;25779;-90
2021/05/21 00:37:18;;;;;;;14.15;8.45;;;;;;;5.97;69.72;97255.00;1717173;82;26351;-89
2021/05/21 00:39:45;;;;;;;15.50;7.83;;;;;;;5.94;69.80;97255.37;1717113;82;25688;-91
2021/05/21 00:42:11;;;;;;;14.85;7.85;;;;;;;5.93;69.86;97257.72;1717040;83;27586;-92
2021/05/21 00:44:38;;;;;;;11.55;7.87;;;;;;;5.83;69.85;97261.16;1717177;83;25631;-91
2021/05/21 00:47:05;;;;;;;12.05;7.47;;;;;;;5.72;70.04;97254.42;1717149;82;25581;-90
2021/05/21 00:49:31;;;;;;;12.35;7.78;;;;;;;5.72;70.21;97249.57;1717423;83;26605;-91
2021/05/21 00:52:02;;;;;;;12.80;7.47;;;;;;;5.63;70.12;97249.34;1718636;83;25671;-90
2021/05/21 00:54:29;;;;;;;14.33;7.90;;;;;;;5.63;70.22;97249.34;1719305;83;27430;-89
2021/05/21 00:56:55;;;;;;;10.78;7.10;;;;;;;5.61;70.12;97246.02;1717009;83;25641;-89
2021/05/21 00:59:22;;;;;;;14.85;8.30;;;;;;;5.60;70.10;97252.39;1717230;83;25652;-86
2021/05/21 01:01:51;;;;;;;14.50;7.92;;;;;;;5.57;70.15;97248.73;1717161;83;25678;-91
2021/05/21 01:04:17;;;;;;;14.45;6.95;;;;;;;5.51;70.14;97248.14;1717044;83;25707;-88
2021/05/21 01:06:44;;;;;;;14.53;7.85;;;;;;;5.42;70.14;97252.25;1717168;83;27173;-89
2021/05/21 01:09:11;;;;;;;14.13;7.67;;;;;;;5.40;70.38;97253.44;1716913;83;25741;-84
2021/05/21 01:11:37;;;;;;;10.95;6.60;;;;;;;5.39;70.42;97253.11;1716952;83;25682;-89
2021/05/21 01:14:04;;;;;;;11.33;7.53;;;;;;;5.38;70.43;97255.46;1717157;83;25789;-90
2021/05/21 01:16:30;;;;;;;12.18;7.42;;;;;;;5.36;70.41;97254.30;1702935;83;25707;-90
2021/05/21 01:19:03;;;;;;;14.35;7.95;;;;;;;5.34;70.45;97251.47;1692691;83;28190;-87
2021/05/21 01:21:25;;;;;;;12.37;6.65;;;;;;;5.35;70.54;97252.64;1695650;83;25639;-88
2021/05/21 01:23:52;;;;;;;11.33;6.70;;;;;;;5.35;70.56;97252.64;1690109;83;26235;-89
2021/05/21 01:26:19;;;;;;;13.22;6.87;;;;;;;5.35;70.52;97245.11;1690024;83;25774;-88
2021/05/21 01:28:46;;;;;;;13.18;6.92;;;;;;;5.33;70.46;97246.62;1688862;83;25692;-86
2021/05/21 01:31:13;;;;;;;12.70;7.70;;;;;;;5.28;70.57;97237.50;1708771;83;27424;-87
2021/05/21 01:33:42;;;;;;;11.90;7.80;;;;;;;5.30;70.62;97240.33;1720512;83;25457;-85
2021/05/21 01:36:08;;;;;;;13.48;8.08;;;;;;;5.28;70.60;97243.69;1708785;82;26564;-89
2021/05/21 01:38:37;;;;;;;16.73;7.75;;;;;;;5.28;70.68;97238.84;1726136;82;26434;-88
2021/05/21 01:41:04;;;;;;;11.97;7.25;;;;;;;5.26;70.74;97243.03;1705234;82;25699;-88
2021/05/21 01:43:31;;;;;;;12.43;7.35;;;;;;;5.27;70.89;97242.02;1710760;82;27477;-90
2021/05/21 01:45:59;;;;;;;14.45;7.92;;;;;;;5.24;70.88;97238.87;1708563;82;25822;-89
2021/05/21 01:48:26;;;;;;;12.15;7.75;;;;;;;5.21;70.88;97245.41;1699900;82;25770;-86
2021/05/21 01:50:52;;;;;;;14.75;8.23;;;;;;;5.21;70.95;97241.39;1710977;83;26502;-89
2021/05/21 01:53:19;;;;;;;12.23;8.38;;;;;;;5.20;70.98;97239.73;1724952;81;25710;-89
2021/05/21 01:55:52;;;;;;;18.48;8.10;;;;;;;5.19;71.12;97238.59;1752896;81;27547;-89
2021/05/21 01:58:18;;;;;;;21.55;9.35;;;;;;;5.07;71.08;97239.54;1715763;82;25746;-87
2021/05/21 02:00:45;;;;;;;15.60;7.87;;;;;;;4.95;71.20;97234.30;1719558;82;25646;-88
2021/05/21 02:03:11;;;;;;;15.60;8.15;;;;;;;4.93;71.37;97237.66;1710089;82;25922;-89
2021/05/21 02:05:38;;;;;;;14.03;8.10;;;;;;;4.95;71.50;97232.42;1716535;82;25656;-88
2021/05/21 02:08:05;;;;;;;12.55;7.58;;;;;;;4.98;71.46;97233.41;1713338;82;27418;-87
2021/05/21 02:10:32;;;;;;;15.45;7.80;;;;;;;5.00;71.50;97237.24;1704775;82;25962;-89
2021/05/21 02:12:58;;;;;;;14.73;7.30;;;;;;;4.97;71.49;97232.25;1723238;82;26356;-89
2021/05/21 02:15:25;;;;;;;15.08;7.62;;;;;;;4.92;71.50;97232.81;1733615;82;25714;-89
2021/05/21 02:17:51;;;;;;;13.98;7.72;;;;;;;4.92;71.60;97231.97;1727645;82;26259;-89
2021/05/21 02:20:18;;;;;;;14.58;8.75;;;;;;;4.94;71.58;97236.64;1726519;82;27322;-90
2021/05/21 02:22:44;;;;;;;14.55;7.78;;;;;;;4.93;71.58;97229.63;1704659;82;25701;-90
2021/05/21 02:25:12;;;;;;;18.02;7.87;;;;;;;4.92;71.54;97225.29;1730810;81;25709;-91
2021/05/21 02:27:39;;;;;;;13.13;7.97;;;;;;;4.91;71.60;97226.30;1715843;82;26442;-88
2021/05/21 02:30:09;;;;;;;17.90;7.92;;;;;;;4.90;71.62;97221.95;1730371;82;25815;-86
2021/05/21 02:32:37;;;;;;;11.05;7.00;;;;;;;4.91;71.57;97230.31;1732496;82;27197;-89
2021/05/21 02:35:05;;;;;;;11.28;7.67;;;;;;;4.86;71.59;97221.48;1706121;82;25714;-89
2021/05/21 02:37:31;;;;;;;11.65;7.30;;;;;;;4.81;71.67;97224.38;1719926;82;25614;-90
2021/05/21 02:39:58;;;;;;;13.75;7.92;;;;;;;4.81;71.78;97223.05;1725106;82;26635;-89
2021/05/21 02:42:24;;;;;;;14.83;7.80;;;;;;;4.81;71.88;97226.55;1726721;82;25614;-89
2021/05/21 02:44:51;;;;;;;12.18;7.90;;;;;;;4.76;71.81;97226.75;1725171;82;27325;-88
2021/05/21 02:47:17;;;;;;;11.48;8.13;;;;;;;4.66;71.86;97223.81;1725023;82;25758;-87
2021/05/21 02:49:44;;;;;;;10.75;7.47;;;;;;;4.68;72.06;97228.48;1728160;82;25685;-88
2021/05/21 02:52:11;;;;;;;10.75;7.05;;;;;;;4.69;72.04;97224.80;1702644;82;25916;-88
2021/05/21 02:54:37;;;;;;;10.25;7.10;;;;;;;4.71;72.01;97229.44;1711548;81;26234;-88
2021/05/21 02:57:04;;;;;;;11.68;7.30;;;;;;;4.68;72.05;97232.50;1699601;82;27562;-88
2021/05/21 02:59:31;;;;;;;11.53;7.50;;;;;;;4.69;72.12;97230.66;1700813;82;25719;-89
2021/05/21 03:01:58;;;;;;;13.43;7.97;;;;;;;4.73;72.09;97229.77;1703789;83;25853;-89
2021/05/21 03:04:24;;;;;;;15.50;7.17;;;;;;;4.73;72.08;97227.93;1702441;82;25652;-90
2021/05/21 03:06:51;;;;;;;16.17;8.33;;;;;;;4.76;72.05;97233.44;1696167;82;25758;-89
2021/05/21 03:09:17;;;;;;;14.58;8.33;;;;;;;4.76;72.00;97231.59;1696271;82;27540;-89
2021/05/21 03:11:44;;;;;;;13.32;8.73;;;;;;;4.76;72.10;97240.12;1695997;82;25715;-88
2021/05/21 03:14:10;;;;;;;14.10;7.75;;;;;;;4.76;72.25;97237.45;1695599;82;25708;-88
2021/05/21 03:16:37;;;;;;;13.68;7.78;;;;;;;4.72;72.32;97240.97;1711281;82;25744;-89
2021/05/21 03:19:04;;;;;;;18.10;8.83;;;;;;;4.61;72.48;97238.21;1712554;83;25624;-89
2021/05/21 03:21:30;;;;;;;19.07;8.80;;;;;;;4.58;72.67;97232.41;1703293;83;27378;-88
2021/05/21 03:23:57;;;;;;;14.20;8.25;;;;;;;4.62;72.86;97237.20;1689283;83;25667;-90
2021/05/21 03:26:23;;;;;;;14.20;8.70;;;;;;;4.67;72.94;97237.52;1699054;82;25699;-89
2021/05/21 03:28:50;;;;;;;14.58;8.55;;;;;;;4.75;73.01;97230.43;1698051;83;26547;-88
2021/05/21 03:31:16;;;;;;;13.78;8.28;;;;;;;4.80;72.96;97232.08;1713310;82;25755;-90
2021/05/21 03:33:43;;;;;;;17.55;8.65;;;;;;;4.83;72.88;97225.84;1742456;81;27482;-87
2021/05/21 03:36:10;;;;;;;13.85;7.83;;;;;;;4.86;72.89;97221.98;1701235;83;25611;-87
2021/05/21 03:38:37;;;;;;;18.27;9.48;;;;;;;4.92;72.81;97226.63;1687691;83;25605;-89
2021/05/21 03:41:06;;;;;;;17.32;8.70;;;;;;;4.95;72.82;97228.95;1686261;83;25680;-89
2021/05/21 03:43:32;;;;;;;18.20;10.10;;;;;;;4.98;72.77;97221.88;1700147;83;26320;-90
2021/05/21 03:45:59;;;;;;;16.97;9.18;;;;;;;5.01;72.83;97220.19;1704661;82;27347;-89
2021/05/21 03:48:26;;;;;;;13.15;8.48;;;;;;;5.04;72.85;97217.16;1737998;81;26341;-90
2021/05/21 03:50:53;;;;;;;10.63;7.72;;;;;;;5.08;72.85;97213.08;1714069;83;25691;-89
2021/05/21 03:53:20;;;;;;;16.30;7.87;;;;;;;5.11;72.92;97212.73;1725705;83;26076;-89
2021/05/21 03:55:46;;;;;;;16.67;8.63;;;;;;;5.13;72.95;97210.70;1725675;82;25600;-89
2021/05/21 03:58:13;;;;;;;16.10;9.35;;;;;;;5.17;72.94;97200.48;1725611;83;27354;-90
2021/05/21 04:00:40;;;;;;;14.55;9.23;;;;;;;5.21;72.98;97205.27;1725660;83;25615;-88
2021/05/21 04:03:07;;;;;;;19.23;9.65;;;;;;;5.25;72.97;97205.73;1705121;83;25209;-88
2021/05/21 04:05:34;;;;;;;14.43;8.88;;;;;;;5.28;73.07;97202.70;1725567;82;25726;-89
2021/05/21 04:08:01;;;;;;;17.50;8.60;;;;;;;5.29;73.04;97210.56;1719636;82;25323;-88
2021/05/21 04:10:28;;;;;;;14.23;8.65;;;;;;;5.32;73.06;97212.84;1695041;83;27564;-86
2021/05/21 04:12:55;;;;;;;15.40;9.25;;;;;;;5.34;73.10;97206.80;1720082;83;25424;-89
2021/05/21 04:15:22;;;;;;;15.10;8.85;;;;;;;5.38;73.17;97208.62;1725690;83;25682;-89
2021/05/21 04:17:49;;;;;;;20.90;8.90;;;;;;;5.41;73.23;97217.13;1702195;82;25782;-89
2021/05/21 04:20:15;;;;;;;18.57;9.10;;;;;;;5.43;73.20;97216.41;1705326;83;25635;-89
2021/05/21 04:22:42;;;;;;;18.25;8.98;;;;;;;5.46;73.12;97207.69;1725645;82;27232;-90
2021/05/21 04:25:09;;;;;;;14.63;8.73;;;;;;;5.48;73.18;97211.02;1717669;83;25689;-90
2021/05/21 04:27:36;;;;;;;16.27;9.10;;;;;;;5.50;73.22;97207.14;1693660;83;26059;-89
2021/05/21 04:30:04;;;;;;;14.70;9.20;;;;;;;5.54;73.27;97204.94;1716149;83;25923;-89
2021/05/21 04:32:31;;;;;;;16.57;9.15;;;;;;;5.59;73.43;97210.55;1693493;83;25320;-88
2021/05/21 04:34:58;;;;;;;13.58;8.68;;;;;;;5.63;73.65;97202.48;1712208;83;27394;-89
2021/05/21 04:37:25;;;;;;;16.73;9.00;;;;;;;5.70;73.71;97206.91;1706724;82;25720;-88
2021/05/21 04:39:52;;;;;;;18.52;8.90;;;;;;;5.79;73.88;97204.47;1722354;82;25652;-88
2021/05/21 04:42:18;;;;;;;13.70;9.13;;;;;;;5.89;74.10;97205.55;1734866;82;25664;-90
2021/05/21 04:44:45;;;;;;;14.10;9.08;;;;;;;5.95;74.16;97202.11;1720138;82;25654;-91
2021/05/21 04:47:12;;;;;;;11.75;8.08;;;;;;;6.03;74.32;97198.00;1706702;82;27926;-91
2021/05/21 04:49:39;;;;;;;15.78;8.93;;;;;;;6.13;74.36;97205.73;1722070;82;25477;-86
2021/05/21 04:52:09;;;;;;;17.12;9.25;;;;;;;6.20;74.29;97203.95;1734711;81;25580;-86
2021/05/21 04:54:37;;;;;;;14.25;8.63;;;;;;;6.31;74.34;97199.95;1753217;81;25693;-91
2021/05/21 04:57:05;;;;;;;14.80;8.30;;;;;;;6.40;74.46;97198.83;1738445;81;26271;-91
2021/05/21 04:59:33;;;;;;;12.07;9.00;;;;;;;6.50;74.48;97200.17;1706288;82;28052;-92
2021/05/21 05:02:00;;;;;;;15.85;9.65;;;;;;;6.60;74.53;97183.77;1752737;81;25697;-92
2021/05/21 05:04:27;;;;;;;15.08;9.35;;;;;;;6.70;74.64;97182.92;1735107;81;25707;-91
2021/05/21 05:06:54;;;;;;;13.58;9.75;;;;;;;6.80;74.70;97179.41;1723614;82;26601;-92
2021/05/21 05:09:20;;;;;;;14.20;9.40;;;;;;;6.90;74.88;97177.72;1714770;82;25662;-93
2021/05/21 05:11:47;;;;;;;15.58;8.93;;;;;;;7.01;74.90;97179.05;1704302;82;27477;-91
2021/05/21 05:14:14;;;;;;;13.80;9.68;;;;;;;7.10;74.91;97185.45;1705482;82;25777;-91
2021/05/21 05:16:41;;;;;;;33.20;17.35;;;;;;;7.24;75.03;97181.00;1703330;82;25722;-90
2021/05/21 05:19:08;;;;;;;25.02;14.07;;;;;;;7.34;75.18;97176.11;1708953;82;26459;-92
2021/05/21 05:21:41;;;;;;;19.45;11.33;;;;;;;7.46;75.35;97173.20;1723466;82;26003;-93
2021/05/21 05:24:18;;;;;;;19.15;10.90;;;;;;;7.59;75.37;97173.28;1729788;82;28549;-94
2021/05/21 05:26:47;;;;;;;17.92;11.57;;;;;;;7.73;75.37;97172.80;1729537;82;25714;-93
2021/05/21 05:29:13;;;;;;;17.40;13.38;;;;;;;7.86;75.56;97161.30;1696943;82;26468;-92
2021/05/21 05:31:45;;;;;;;15.98;11.57;;;;;;;8.00;75.64;97162.18;1726982;82;26540;-92
2021/05/21 05:34:09;;;;;;;16.27;12.85;;;;;;;8.14;75.72;97159.34;1722349;82;25679;-92
2021/05/21 05:36:36;;;;;;;25.43;18.77;;;;;;;8.30;75.71;97161.67;1721296;82;27409;-94
2021/05/21 05:39:05;;;;;;;25.02;19.60;;;;;;;8.46;75.60;97163.17;1716657;83;25697;-95
2021/05/21 05:41:32;;;;;;;20.10;16.20;;;;;;;8.60;75.52;97159.48;1717899;83;25251;-95
2021/05/21 05:43:58;;;;;;;27.22;23.38;;;;;;;8.75;75.21;97157.95;1709381;83;25690;-94
2021/05/21 05:46:25;;;;;;;25.20;13.68;;;;;;;8.91;75.09;97165.63;1701585;83;25587;-93
2021/05/21 05:48:52;;;;;;;14.58;10.48;;;;;;;9.03;74.67;97170.70;1690891;83;28082;-96
2021/05/21 05:51:18;;;;;;;12.10;8.55;;;;;;;9.16;74.31;97163.14;1690032;83;25244;-93
2021/05/21 05:53:45;;;;;;;9.75;7.90;;;;;;;9.30;74.14;97158.55;1687036;83;25256;-90
2021/05/21 05:56:12;;;;;;;11.97;7.70;;;;;;;9.45;73.75;97162.37;1685691;83;25780;-91
2021/05/21 05:58:41;;;;;;;10.08;7.42;;;;;;;9.61;73.41;97156.02;1690958;83;25622;-94
2021/05/21 06:01:08;;;;;;;9.43;7.15;;;;;;;9.77;73.07;97145.83;1692609;83;27472;-93
2021/05/21 06:03:34;;;;;;;7.90;6.78;;;;;;;9.93;72.72;97146.16;1689243;83;26039;-92
2021/05/21 06:06:01;;;;;;;8.58;6.20;;;;;;;10.12;72.60;97149.83;1689284;83;25750;-92
2021/05/21 06:08:28;;;;;;;8.68;6.12;;;;;;;10.28;72.28;97143.95;1690541;83;26265;-89
2021/05/21 06:10:54;;;;;;;8.20;6.00;;;;;;;10.40;71.93;97136.83;1686421;83;25745;-91
2021/05/21 06:13:26;;;;;;;9.35;6.60;;;;;;;10.54;71.62;97140.80;1686505;83;27943;-91
2021/05/21 06:15:53;;;;;;;7.42;6.22;;;;;;;10.63;71.15;97133.56;1690241;83;26320;-89
2021/05/21 06:18:21;;;;;;;9.10;6.55;;;;;;;10.76;71.13;97137.52;1689921;83;25707;-89
2021/05/21 06:20:48;;;;;;;7.08;5.72;;;;;;;10.91;70.60;97134.51;1690155;83;25823;-88
2021/05/21 06:23:15;;;;;;;9.38;6.17;;;;;;;11.08;70.52;97141.03;1690161;83;25273;-88
2021/05/21 06:28:25;;;;;;;6.78;5.50;;;;;;;11.36;69.64;97132.44;1709845;83;25598;-90
2021/05/21 06:30:53;;;;;;;9.30;5.12;;;;;;;11.46;69.19;97129.25;1715520;83;25579;-91
2021/05/21 06:33:20;;;;;;;8.03;5.50;;;;;;;11.59;69.10;97126.41;1717245;83;25776;-88
2021/05/21 06:35:48;;;;;;;8.83;4.45;;;;;;;11.72;68.90;97123.53;1717886;83;25701;-88
2021/05/21 06:38:19;;;;;;;9.73;4.67;;;;;;;11.82;68.58;97119.83;1729362;82;27396;-90
2021/05/21 06:40:46;;;;;;;6.22;4.15;;;;;;;11.94;68.08;97120.42;1723753;82;25741;-87
2021/05/21 06:43:13;;;;;;;7.47;3.87;;;;;;;12.03;67.79;97115.83;1729528;82;25625;-90
2021/05/21 06:45:41;;;;;;;7.45;4.25;;;;;;;12.14;67.48;97110.17;1729123;82;25686;-86
2021/05/21 06:48:08;;;;;;;6.12;4.05;;;;;;;12.23;67.23;97115.55;1722935;82;25821;-91
2021/05/21 06:50:35;;;;;;;6.25;3.95;;;;;;;12.32;66.66;97099.29;1729546;82;27395;-90
2021/05/21 06:53:02;;;;;;;4.45;3.45;;;;;;;12.41;66.18;97095.75;1729045;82;25718;-90
2021/05/21 06:55:29;;;;;;;3.98;3.20;;;;;;;12.54;66.11;97104.51;1727506;82;25235;-92
2021/05/21 06:57:55;;;;;;;4.70;3.35;;;;;;;12.66;65.51;97095.59;1720209;82;25733;-89
2021/05/21 07:00:22;;;;;;;4.37;3.17;;;;;;;12.76;65.06;97087.72;1727629;82;25741;-86
2021/05/21 07:02:49;;;;;;;4.42;2.40;;;;;;;12.85;64.69;97087.14;1719450;82;27453;-92
2021/05/21 07:05:16;;;;;;;5.87;2.77;;;;;;;12.93;63.95;97084.61;1728676;82;26127;-90
2021/05/21 07:07:43;;;;;;;2.87;1.85;;;;;;;13.03;63.43;97080.81;1726994;82;25576;-95
2021/05/21 07:10:11;;;;;;;2.75;2.00;;;;;;;13.13;63.07;97077.52;1697074;82;26353;-90
2021/05/21 07:12:37;;;;;;;4.17;2.25;;;;;;;13.21;62.43;97082.08;1727153;82;25634;-91
2021/05/21 07:15:07;;;;;;;2.90;1.80;;;;;;;13.31;61.90;97071.98;1728918;82;27390;-89
2021/05/21 07:17:33;;;;;;;3.12;2.10;;;;;;;13.41;61.46;97065.44;1718261;82;25773;-86
2021/05/21 07:20:00;;;;;;;2.98;1.72;;;;;;;13.52;60.86;97058.37;1720371;82;25633;-88
2021/05/21 07:22:26;;;;;;;2.87;2.12;;;;;;;13.65;60.57;97071.65;1718553;82;25669;-87
2021/05/21 07:24:53;;;;;;;1.65;1.35;;;;;;;13.74;60.12;97059.39;1721281;82;25576;-94
2021/05/21 07:27:20;;;;;;;2.77;1.60;;;;;;;13.81;59.32;97053.28;1732277;82;27294;-94
2021/05/21 07:29:46;;;;;;;3.22;2.33;;;;;;;13.86;59.07;97056.11;1732243;82;25591;-91
2021/05/21 07:32:13;;;;;;;4.08;2.37;;;;;;;13.96;59.42;97045.45;1730829;82;25668;-94
2021/05/21 07:34:39;;;;;;;3.52;2.00;;;;;;;14.10;59.67;97040.56;1729603;82;25731;-91
2021/05/21 07:37:06;;;;;;;2.80;1.52;;;;;;;14.22;58.92;97033.73;1709126;82;25619;-93
2021/05/21 07:39:33;;;;;;;2.45;1.70;;;;;;;14.30;58.72;97036.04;1700574;83;28091;-94
2021/05/21 07:41:59;;;;;;;4.00;1.70;;;;;;;14.53;58.46;97033.77;1727587;82;25735;-91
2021/05/21 07:44:27;;;;;;;1.50;1.40;;;;;;;14.82;58.32;97022.30;1705604;83;25656;-93
2021/05/21 07:46:53;;;;;;;2.05;1.40;;;;;;;15.14;57.49;97021.44;1727694;82;25760;-93
2021/05/21 07:49:24;;;;;;;2.62;1.82;;;;;;;15.57;57.20;97019.08;1709971;82;25683;-92
2021/05/21 07:51:53;;;;;;;2.17;1.47;;;;;;;16.04;56.72;97032.45;1703401;82;27369;-91
2021/05/21 07:54:20;;;;;;;2.42;1.47;;;;;;;16.48;56.00;97028.27;1706361;82;25637;-91
2021/05/21 07:56:47;;;;;;;4.03;1.50;;;;;;;16.88;55.47;97030.03;1701683;84;25656;-88
2021/05/21 07:59:14;;;;;;;1.95;1.60;;;;;;;17.20;54.25;97029.98;1734920;81;26227;-92
2021/05/21 08:01:42;;;;;;;1.98;1.42;;;;;;;17.60;53.56;97030.78;1723184;83;25922;-91
2021/05/21 08:04:09;;;;;;;3.95;1.70;;;;;;;17.94;53.17;97038.61;1724080;83;28042;-87
2021/05/21 08:06:38;;;;;;;2.40;1.57;;;;;;;18.43;52.66;97030.02;1718955;83;26160;-89
2021/05/21 08:09:05;;;;;;;3.60;1.50;;;;;;;18.73;51.61;97028.70;1724462;83;25709;-90
2021/05/21 08:11:33;;;;;;;2.70;1.30;;;;;;;19.04;51.34;97020.80;1724003;82;25710;-91
2021/05/21 08:14:00;;;;;;;2.55;1.20;;;;;;;19.27;50.29;97034.45;1724274;83;25726;-89
2021/05/21 08:16:31;;;;;;;1.40;1.00;;;;;;;19.44;49.12;97025.38;1723100;83;27220;-91
2021/05/21 08:18:58;;;;;;;1.32;1.05;;;;;;;19.61;48.55;97016.06;1724768;83;25895;-87
2021/05/21 08:21:27;;;;;;;2.90;1.50;;;;;;;19.82;48.05;97018.17;1690465;83;25652;-90
2021/05/21 08:23:55;;;;;;;2.55;1.32;;;;;;;20.06;47.63;97022.73;1703453;83;26475;-92
2021/05/21 08:26:25;;;;;;;2.02;1.30;;;;;;;20.16;46.11;97013.67;1723386;83;25667;-90
2021/05/21 08:28:55;;;;;;;2.50;1.30;;;;;;;20.39;46.42;97007.53;1725774;83;27409;-85
2021/05/21 08:31:22;;;;;;;1.87;1.00;;;;;;;20.66;46.00;97007.05;1724982;83;25603;-91
2021/05/21 08:33:49;;;;;;;1.50;1.37;;;;;;;20.97;45.74;96992.56;1718458;83;25593;-87
2021/05/21 08:36:15;;;;;;;2.50;0.98;;;;;;;21.32;44.61;97005.72;1721811;83;25949;-87
2021/05/21 08:38:47;;;;;;;3.98;1.62;;;;;;;21.55;44.14;97002.17;1720619;82;25658;-91
2021/05/21 08:41:18;;;;;;;1.77;1.42;;;;;;;21.78;43.97;96994.49;1719676;83;27566;-91
2021/05/21 08:43:49;;;;;;;2.20;1.50;;;;;;;22.05;43.33;96983.48;1722410;83;25666;-90
2021/05/21 08:46:18;;;;;;;3.47;1.43;;;;;;;22.28;42.59;96988.11;1729116;82;25685;-92
2021/05/21 08:48:45;;;;;;;2.30;1.32;;;;;;;22.41;41.97;96983.25;1720543;83;25927;-91
2021/05/21 08:51:14;;;;;;;1.15;1.10;;;;;;;22.69;41.61;96969.64;1714992;82;25614;-87
2021/05/21 08:53:41;;;;;;;2.10;1.10;;;;;;;23.00;40.80;96981.80;1720849;83;28042;-87
2021/05/21 08:56:10;;;;;;;2.00;1.47;;;;;;;23.06;39.50;96977.03;1720866;83;25731;-85
2021/05/21 08:58:37;;;;;;;2.60;1.25;;;;;;;23.11;39.15;96972.80;1721025;82;25452;-88
2021/05/21 09:01:04;;;;;;;2.27;1.10;;;;;;;23.06;39.12;96964.09;1719662;83;26502;-92
2021/05/21 09:03:33;;;;;;;1.30;1.20;;;;;;;23.22;38.67;96977.82;1720865;83;25848;-93
2021/05/21 09:06:20;;;;;;;1.22;1.07;;;;;;;23.51;38.88;96962.45;1720662;83;27569;-91
2021/05/21 09:08:59;;;;;;;2.95;1.15;;;;;;;23.68;38.08;96979.74;1716806;83;25564;-92
